• pl
  • eng

Awiacja
WIADOMOŚCI
ostatnia aktualizacja: 26.09.2019 09:57
Uprzejmie informujemy, że od dnia 2.09.2019 jest dostępna w formie testowej prognoza GAFOR. Prosimy o przesyłanie na adres gafor@imgw.pl uwag i sugestii, które przyczynią się do rozwoju produktu.
Kliknij na pogrubioną czerwoną nazwę, aby odkodować depeszę. 07:01 11.12.2019
  • WIND
  • SIGNIFICANT EURO
  • SIGNIFICANT
  • SIGMET
  • AIRMET
  • TAF FC
  • TAF FT
  • METAR GG30
  • METAR GG00


METAR EPBY 110600Z 16008KT 5000 BR BKN002 M02/M03 Q1018 =

METAR EPGD 110600Z 17008KT 9999 SCT002 M01/M02 Q1016 R11/290095 =

METAR EPKK 110600Z VRB01KT 0700 R25/2000N FZFG NSC M05/M06 Q1022 =

METAR EPKT 110600Z 11004KT 1600 BR NSC M06/M07 Q1021 =

METAR EPLB 110600Z VRB01KT 8000 NSC M04/M04 Q1022 =

METAR EPLL 110600Z VRB01KT 3000 BR NSC M07/M07 Q1021 =

METAR EPMO 110600Z 17005KT 4400 BR FEW001 M04/M04 Q1021 =

METAR EPPO 110600Z 15008KT CAVOK M02/M03 Q1017 =

METAR EPRA 110600Z NIL=

METAR EPRZ 110600Z 33003KT 9999 OVC038 M00/M02 Q1022 =

METAR EPSC 110600Z 16011KT CAVOK 01/M02 Q1013 =

METAR EPSY 110600Z NIL=

METAR EPWA 110600Z 16004KT 7000 NSC M05/M05 Q1022 TEMPO 3000 BR=

METAR EPWR 110600Z 14009KT CAVOK M04/M06 Q1019 =

METAR EPZG 110600Z 17003KT CAVOK M03/M04 Q1017 =
Awiacja.imgw.pl jest pogodowym serwisem informacyjnym
Instytutu Meteorologii i Gospodarki Wodnej Państwowego Instytutu Badawczego.
Copyright IMGW PIB 2009-2019© Wszelkie prawa zastrzeżone.